地図

経路データ

SID SEASON NUMBER BASIN SUBBASIN NAME ISO_TIME NATURE LAT LON WMO_WIND WMO_PRES WMO_AGENCY TRACK_TYPE DIST2LAND LANDFALL IFLAG USA_AGENCY USA_ATCF_ID USA_LAT USA_LON USA_RECORD USA_STATUS USA_WIND USA_PRES USA_SSHS USA_R34_NE USA_R34_SE USA_R34_SW USA_R34_NW USA_R50_NE USA_R50_SE USA_R50_SW USA_R50_NW USA_R64_NE USA_R64_SE USA_R64_SW USA_R64_NW USA_POCI USA_ROCI USA_RMW USA_EYE TOKYO_LAT TOKYO_LON TOKYO_GRADE TOKYO_WIND TOKYO_PRES TOKYO_R50_DIR TOKYO_R50_LONG TOKYO_R50_SHORT TOKYO_R30_DIR TOKYO_R30_LONG TOKYO_R30_SHORT TOKYO_LAND CMA_LAT CMA_LON CMA_CAT CMA_WIND CMA_PRES HKO_LAT HKO_LON HKO_CAT HKO_WIND HKO_PRES NEWDELHI_LAT NEWDELHI_LON NEWDELHI_GRADE NEWDELHI_WIND NEWDELHI_PRES NEWDELHI_CI NEWDELHI_DP NEWDELHI_POCI REUNION_LAT REUNION_LON REUNION_TYPE REUNION_WIND REUNION_PRES REUNION_TNUM REUNION_CI REUNION_RMW REUNION_R34_NE REUNION_R34_SE REUNION_R34_SW REUNION_R34_NW REUNION_R50_NE REUNION_R50_SE REUNION_R50_SW REUNION_R50_NW REUNION_R64_NE REUNION_R64_SE REUNION_R64_SW REUNION_R64_NW BOM_LAT BOM_LON BOM_TYPE BOM_WIND BOM_PRES BOM_TNUM BOM_CI BOM_RMW BOM_R34_NE BOM_R34_SE BOM_R34_SW BOM_R34_NW BOM_R50_NE BOM_R50_SE BOM_R50_SW BOM_R50_NW BOM_R64_NE BOM_R64_SE BOM_R64_SW BOM_R64_NW BOM_ROCI BOM_POCI BOM_EYE BOM_POS_METHOD BOM_PRES_METHOD NADI_LAT NADI_LON NADI_CAT NADI_WIND NADI_PRES WELLINGTON_LAT WELLINGTON_LON WELLINGTON_WIND WELLINGTON_PRES DS824_LAT DS824_LON DS824_STAGE DS824_WIND DS824_PRES TD9636_LAT TD9636_LON TD9636_STAGE TD9636_WIND TD9636_PRES TD9635_LAT TD9635_LON TD9635_WIND TD9635_PRES TD9635_ROCI NEUMANN_LAT NEUMANN_LON NEUMANN_CLASS NEUMANN_WIND NEUMANN_PRES MLC_LAT MLC_LON MLC_CLASS MLC_WIND MLC_PRES USA_GUST BOM_GUST BOM_GUST_PER REUNION_GUST REUNION_GUST_PER USA_SEAHGT USA_SEARAD_NE USA_SEARAD_SE USA_SEARAD_SW USA_SEARAD_NW STORM_SPEED STORM_DIR
1941204N17130 1941 37 WP MM NOT_NAMED 1941-07-22 21:00:00 NR 16.5000 129.500 main 619 606 __________O___ -1 16.5000 129.500 4 6 314
1941204N17130 1941 37 WP MM NOT_NAMED 1941-07-23 00:00:00 NR 16.6938 129.291 main 612 599 __________P___ -1 16.6938 129.291 4 6 315
1941204N17130 1941 37 WP MM NOT_NAMED 1941-07-23 03:00:00 NR 16.9000 129.075 main 605 594 __________P___ -1 16.9000 129.075 4 6 316
1941204N17130 1941 37 WP MM NOT_NAMED 1941-07-23 06:00:00 NR 17.1312 128.847 main 592 590 __________P___ -1 17.1312 128.847 4 7 318
1941204N17130 1941 37 WP MM NOT_NAMED 1941-07-23 09:00:00 NR 17.4000 128.600 main 596 595 __________O___ -1 17.4000 128.600 4 8 320
1941204N17130 1941 37 WP MM NOT_NAMED 1941-07-23 12:00:00 NR 17.7126 128.333 main 595 595 __________P___ -1 17.7126 128.333 4 8 322
1941204N17130 1941 37 WP MM NOT_NAMED 1941-07-23 15:00:00 NR 18.0502 128.063 main 606 580 __________P___ -1 18.0502 128.063 4 8 324
1941204N17130 1941 37 WP MM NOT_NAMED 1941-07-23 18:00:00 NR 18.3877 127.811 main 580 559 __________P___ -1 18.3877 127.811 4 8 326
1941204N17130 1941 37 WP MM NOT_NAMED 1941-07-23 21:00:00 NR 18.7000 127.600 main 559 549 __________O___ -1 18.7000 127.600 4 7 331
1941204N17130 1941 37 WP MM NOT_NAMED 1941-07-24 00:00:00 NR 18.9575 127.481 main 551 542 __________P___ -1 18.9575 127.481 4 5 339
1941204N17130 1941 37 WP MM NOT_NAMED 1941-07-24 03:00:00 NR 19.1870 127.399 main 544 535 __________P___ -1 19.1870 127.399 4 5 341
1941204N17130 1941 37 WP MM NOT_NAMED 1941-07-24 06:00:00 NR 19.3981 127.318 main 537 532 __________P___ -1 19.3981 127.318 4 5 335
1941204N17130 1941 37 WP MM NOT_NAMED 1941-07-24 09:00:00 NR 19.6000 127.200 main 532 504 __________O___ -1 19.6000 127.200 4 6 309
1941204N17130 1941 37 WP MM NOT_NAMED 1941-07-24 12:00:00 NR 19.7626 126.849 main 498 471 __________P___ -1 19.7626 126.849 4 8 296
1941204N17130 1941 37 WP MM NOT_NAMED 1941-07-24 15:00:00 NR 19.9246 126.478 main 471 451 __________P___ -1 19.9246 126.478 4 7 301
1941204N17130 1941 37 WP MM NOT_NAMED 1941-07-24 18:00:00 NR 20.1242 126.219 main 451 451 __________P___ -1 20.1242 126.219 4 5 331
1941204N17130 1941 37 WP MM NOT_NAMED 1941-07-24 21:00:00 NR 20.4000 126.200 main 466 466 __________O___ -1 20.4000 126.200 4 8 29
1941204N17130 1941 37 WP MM NOT_NAMED 1941-07-25 00:00:00 NR 20.8185 126.628 main 524 524 __________P___ -1 20.8185 126.628 4 14 49
1941204N17130 1941 37 WP MM NOT_NAMED 1941-07-25 03:00:00 NR 21.3088 127.299 main 615 615 __________P___ -1 21.3088 127.299 4 17 53
1941204N17130 1941 37 WP MM NOT_NAMED 1941-07-25 06:00:00 NR 21.8192 128.072 main 701 701 __________P___ -1 21.8192 128.072 4 17 55
1941204N17130 1941 37 WP MM NOT_NAMED 1941-07-25 09:00:00 NR 22.3000 128.800 main 745 745 __________O___ -1 22.3000 128.800 4 14 55
1941204N17130 1941 37 WP MM NOT_NAMED 1941-07-25 12:00:00 NR 22.6282 129.315 main 783 783 __________P___ -1 22.6282 129.315 4 11 54
1941204N17130 1941 37 WP MM NOT_NAMED 1941-07-25 15:00:00 NR 22.9316 129.753 main 823 820 __________P___ -1 22.9316 129.753 4 10 49
1941204N17130 1941 37 WP MM NOT_NAMED 1941-07-25 18:00:00 NR 23.2692 130.114 main 842 815 __________P___ -1 23.2692 130.114 4 10 38
1941204N17130 1941 37 WP MM NOT_NAMED 1941-07-25 21:00:00 NR 23.7000 130.400 main 815 748 __________O___ -1 23.7000 130.400 4 11 24
1941204N17130 1941 37 WP MM NOT_NAMED 1941-07-26 00:00:00 NR 24.3149 130.611 main 748 669 __________P___ -1 24.3149 130.611 4 14 14
1941204N17130 1941 37 WP MM NOT_NAMED 1941-07-26 03:00:00 NR 25.0242 130.755 main 669 592 __________P___ -1 25.0242 130.755 4 15 9
1941204N17130 1941 37 WP MM NOT_NAMED 1941-07-26 06:00:00 NR 25.7714 130.871 main 580 503 __________P___ -1 25.7714 130.871 4 15 8
1941204N17130 1941 37 WP MM NOT_NAMED 1941-07-26 09:00:00 NR 26.5000 131.000 main 503 437 __________O___ -1 26.5000 131.000 4 14 11
1941204N17130 1941 37 WP MM NOT_NAMED 1941-07-26 12:00:00 NR 27.1484 131.164 main 438 372 __________P___ -1 27.1484 131.164 4 13 14
1941204N17130 1941 37 WP MM NOT_NAMED 1941-07-26 15:00:00 NR 27.7664 131.355 main 363 311 __________P___ -1 27.7664 131.355 4 13 17
1941204N17130 1941 37 WP MM NOT_NAMED 1941-07-26 18:00:00 NR 28.3513 131.593 main 302 261 __________P___ -1 28.3513 131.593 4 12 23
1941204N17130 1941 37 WP MM NOT_NAMED 1941-07-26 21:00:00 NR 28.9000 131.900 main 261 229 __________O___ -1 28.9000 131.900 4 12 29
1941204N17130 1941 37 WP MM NOT_NAMED 1941-07-27 00:00:00 NR 29.4312 132.287 main 235 208 __________P___ -1 29.4312 132.287 4 13 36
1941204N17130 1941 37 WP MM NOT_NAMED 1941-07-27 03:00:00 NR 29.9249 132.745 main 208 202 __________P___ -1 29.9249 132.745 4 13 41
1941204N17130 1941 37 WP MM NOT_NAMED 1941-07-27 06:00:00 NR 30.3810 133.256 main 212 206 __________P___ -1 30.3810 133.256 4 13 46
1941204N17130 1941 37 WP MM NOT_NAMED 1941-07-27 09:00:00 NR 30.8000 133.800 main 224 207 __________O___ -1 30.8000 133.800 4 12 49
1941204N17130 1941 37 WP MM NOT_NAMED 1941-07-27 12:00:00 NR 31.1975 134.335 main 207 195 __________P___ -1 31.1975 134.335 4 12 51
1941204N17130 1941 37 WP MM NOT_NAMED 1941-07-27 15:00:00 NR 31.5590 134.899 main 190 169 __________P___ -1 31.5590 134.899 4 12 55
1941204N17130 1941 37 WP MM NOT_NAMED 1941-07-27 18:00:00 NR 31.8910 135.489 main 169 135 __________P___ -1 31.8910 135.489 4 12 58
1941204N17130 1941 37 WP MM NOT_NAMED 1941-07-27 21:00:00 NR 32.2000 136.100 main 136 124 __________O___ -1 32.2000 136.100 4 12 60
1941204N17130 1941 37 WP MM NOT_NAMED 1941-07-28 00:00:00 NR 32.4825 136.695 main 130 130 __________P___ -1 32.4825 136.695 4 12 62
1941204N17130 1941 37 WP MM NOT_NAMED 1941-07-28 03:00:00 NR 32.7470 137.315 main 157 157 __________P___ -1 32.7470 137.315 4 12 64
1941204N17130 1941 37 WP MM NOT_NAMED 1941-07-28 06:00:00 NR 33.0132 137.977 main 177 145 __________P___ -1 33.0132 137.977 4 13 65
1941204N17130 1941 37 WP MM NOT_NAMED 1941-07-28 09:00:00 NR 33.3000 138.700 main 145 120 __________O___ -1 33.3000 138.700 4 14 64
1941204N17130 1941 37 WP MM NOT_NAMED 1941-07-28 12:00:00 NR 33.6283 139.503 main 128 106 __________P___ -1 33.6283 139.503 4 15 64
1941204N17130 1941 37 WP MM NOT_NAMED 1941-07-28 15:00:00 NR 33.9771 140.368 main 110 109 __________P___ -1 33.9771 140.368 4 16 64
1941204N17130 1941 37 WP MM NOT_NAMED 1941-07-28 18:00:00 NR 34.3372 141.275 main 129 121 __________P___ -1 34.3372 141.275 4 17 64
1941204N17130 1941 37 WP MM NOT_NAMED 1941-07-28 21:00:00 NR 34.7000 142.200 main 162 161 __________O___ -1 34.7000 142.200 4 16 65
1941204N17130 1941 37 WP MM NOT_NAMED 1941-07-29 00:00:00 NR 35.0226 143.088 main 213 213 __________P___ -1 35.0226 143.088 4 16 66
1941204N17130 1941 37 WP MM NOT_NAMED 1941-07-29 03:00:00 NR 35.3505 143.991 main 281 281 __________P___ -1 35.3505 143.991 4 16 66
1941204N17130 1941 37 WP MM NOT_NAMED 1941-07-29 06:00:00 NR 35.7033 144.923 main 360 360 __________P___ -1 35.7033 144.923 4 17 64
1941204N17130 1941 37 WP MM NOT_NAMED 1941-07-29 09:00:00 NR 36.1000 145.900 main 447 447 __________O___ -1 36.1000 145.900 4 18 62
1941204N17130 1941 37 WP MM NOT_NAMED 1941-07-29 12:00:00 NR 36.5531 146.933 main 511 511 __________P___ -1 36.5531 146.933 4 19 61
1941204N17130 1941 37 WP MM NOT_NAMED 1941-07-29 15:00:00 NR 37.0500 148.018 main 578 578 __________P___ -1 37.0500 148.018 4 20 60
1941204N17130 1941 37 WP MM NOT_NAMED 1941-07-29 18:00:00 NR 37.5719 149.144 main 642 642 __________P___ -1 37.5719 149.144 4 21 60
1941204N17130 1941 37 WP MM NOT_NAMED 1941-07-29 21:00:00 NR 38.1000 150.300 main 696 __________O___ -1 38.1000 150.300 4 21 60

デジタル台風データ・検索

IBTrACS Databaseについて

本データベースは、米国NOAAが公開する1842年以降の世界の熱帯低気圧のベストトラックデータアーカイブInternational Best Track Archive for Climate Stewardship (IBTrACS)を、ウェブで閲覧しやすい形式に変換したものです。

最終更新日:2021-10-08